VDF weather

Vigía Del Fuerte Airport
Murindo, Antioquía Department, Colombia

Public forecast

Using degrees Celsius for public forecast. Weather courtesy of forecast.io.

METAR (pilot weather report)

Report is more than 6 hours old.

Closest report is José Celestino Mutis Airport, 38.1 nm (70.6 km) SW. Retrieved 2019/02/13 12:00 UTC (2 months ago):

SKBS 131200Z /////KT 5000 MIFG OVC030 XX/XX A//// RMK MIFG/S/N

TAF (pilot weather forecast)

Closest forecast is Jose Maria Córdova International Airport, 90.7 nm (168.0 km) ESE. Retrieved 2019/04/19 18:45 UTC (4 hours ago):

TAF SKRG 191700Z 1918/2018 27010KT 9999 SCT020 SCT090 TEMPO 1919/1924 7000 TSRA SCT015CB BECMG 2000/2002 VRB02KT TEMPO 2002/2005 7000 -RA SCT013TCU TEMPO 2007/2012 4000 BR SCT010 PROB40 TEMPO 2010/2012 0700 FG VV/// TX23/1918Z TN12/2011Z